Strona główna
METAR-TAF:

METAR-TAF

Lotnisko :

Port lotniczy Samedan

Sankt Moritz, Szwajcaria

Szerokość geograficzna: 46-32-03N, Długość geograficzna: 9-53-03E, wysokość: 1707 m

Aktualna obserwacja pogody

Raport powstał 19 minut temu, godzina 04:50 UTC
Wiatr 1 kt z kierunków zmiennych
Temperatura 8°C
Wilgotność 100%
Ciśnienie 1025 hPa
Widzialność 10 km lub więcej
Mało chmury na wysokości 3500 ft

METAR: LSZS 200450Z AUTO VRB01KT 9999 FEW035 08/08 Q1025

czas: 07:09 (05:09 UTC)

Prognoza

Raport powstał 14 godziny i 44 minut temu, godzina 14:25 UTC
Prognoza ważna od 19 godzina 15 UTC do 19 godzina 24 UTC
Wiatr 16 kt od południowy zachód
Widzialność 10 km lub więcej
Przerywane chmury na wysokości 7500 ft
Przejściowo
od 19 godzina 15 UTC do 19 godzina 16 UTC
Wiatr 15 kt od południowy zachód w porywach dochodzący do 25 kt
Stopniowe zmiany
od 19 godzina 17 UTC do 19 godzina 20 UTC
Wiatr 3 kt z kierunków zmiennych

TAF: LSZS 191425Z 1915/1924 23016KT 9999 BKN075 TX19/1915Z TEMPO 1915/1916 22015G25KT BECMG 1917/1920 VRB03KT

Obserwacja i prognoza pogody dla ponad 4000 lotnisk (raport METAR i TAF).

Dostępne stacje oznaczono żółtymi i czerwonymi punktami na mapie.

Najedź kursorem aby zobaczyć nazwę stacji.

Kliknij aby zobaczyć obserwacje i prognozy pogody.

Aby zmienić mapę: kliknij na zielony przycisk z czarnym krzyżykiem, aby powiększyć; na zielony przycisk z myślnikiem, aby pomniejszyć; na zielone strzałki, aby przejść do map sąsiednich.


METAR-TAF: